createdAt,value
2017-04-03T00:00:30.485Z,91.95
2017-04-03T00:01:24.503Z,91.92
2017-04-03T00:02:18.555Z,91.85
2017-04-03T00:03:12.579Z,91.70
2017-04-03T00:04:13.584Z,91.57
2017-04-03T00:05:13.652Z,91.43
2017-04-03T00:06:07.713Z,91.34
2017-04-03T00:06:56.960Z,91.29
2017-04-03T00:07:45.766Z,91.20
2017-04-03T00:08:39.763Z,91.11
2017-04-03T00:09:28.833Z,91.01
2017-04-03T00:10:17.864Z,90.93
2017-04-03T00:11:11.924Z,90.86
2017-04-03T00:12:11.991Z,90.79
2017-04-03T00:13:11.957Z,90.67
2017-04-03T00:14:00.986Z,90.60
2017-04-03T00:14:54.968Z,90.52
2017-04-03T00:15:49.083Z,90.45
2017-04-03T00:16:37.096Z,90.43
2017-04-03T00:17:31.194Z,90.38
2017-04-03T00:18:19.184Z,90.33
2017-04-03T00:19:08.584Z,90.31
2017-04-03T00:19:57.626Z,90.29
2017-04-03T00:20:45.253Z,90.22
2017-04-03T00:21:46.317Z,90.15
2017-04-03T00:22:46.400Z,90.11
2017-04-03T00:23:40.418Z,90.06
2017-04-03T00:24:28.482Z,90.06
2017-04-03T00:25:22.487Z,90.06
2017-04-03T00:26:11.551Z,90.06
2017-04-03T00:27:00.595Z,89.91
2017-04-03T00:27:48.592Z,89.86
2017-04-03T00:28:36.653Z,89.81
2017-04-03T00:29:31.675Z,89.75
2017-04-03T00:30:25.844Z,89.79
2017-04-03T00:31:19.774Z,89.81
2017-04-03T00:32:08.811Z,89.80
2017-04-03T00:33:08.840Z,89.77
2017-04-03T00:34:02.878Z,89.81
2017-04-03T00:35:02.878Z,89.81
2017-04-03T00:35:58.014Z,89.85
2017-04-03T00:36:51.961Z,89.87
2017-04-03T00:37:51.991Z,89.94
2017-04-03T00:38:52.160Z,89.88
2017-04-03T00:39:46.018Z,89.86
2017-04-03T00:40:40.086Z,89.82
2017-04-03T00:41:29.167Z,89.77
2017-04-03T00:42:24.162Z,89.76
2017-04-03T00:43:12.208Z,89.76
2017-04-03T00:44:06.296Z,89.79
2017-04-03T00:44:55.288Z,89.78
2017-04-03T00:45:49.351Z,89.80
2017-04-03T00:46:43.613Z,89.82
2017-04-03T00:47:32.414Z,89.84
2017-04-03T00:48:21.457Z,89.82
2017-04-03T00:49:15.940Z,89.81
2017-04-03T00:50:09.744Z,89.86
2017-04-03T00:50:57.783Z,89.84
2017-04-03T00:51:51.581Z,89.83
2017-04-03T00:52:45.610Z,89.83
2017-04-03T00:53:33.664Z,89.79
2017-04-03T00:54:24.064Z,89.76
2017-04-03T00:55:11.747Z,89.73
2017-04-03T00:56:06.809Z,89.78
2017-04-03T00:57:01.192Z,89.77
2017-04-03T00:57:55.884Z,89.73
2017-04-03T00:58:44.198Z,89.72
2017-04-03T00:59:43.979Z,89.72
2017-04-03T01:00:37.971Z,89.77
2017-04-03T01:01:32.993Z,89.82
2017-04-03T01:02:28.055Z,89.84
2017-04-03T01:03:23.048Z,89.87
2017-04-03T01:04:18.066Z,89.87
2017-04-03T01:05:18.163Z,89.89
2017-04-03T01:06:12.172Z,89.89
2017-04-03T01:07:07.170Z,89.91
2017-04-03T01:08:01.563Z,89.91
2017-04-03T01:09:01.200Z,89.91
2017-04-03T01:10:01.262Z,89.91
2017-04-03T01:10:50.328Z,89.91
2017-04-03T01:11:44.373Z,89.96
2017-04-03T01:12:45.370Z,89.92
2017-04-03T01:13:34.400Z,89.92
2017-04-03T01:14:23.451Z,89.92
2017-04-03T01:15:12.500Z,89.92
2017-04-03T01:16:06.565Z,89.92
2017-04-03T01:17:00.527Z,89.93
2017-04-03T01:17:49.644Z,89.97
2017-04-03T01:18:44.695Z,90.02
2017-04-03T01:19:38.674Z,90.07
2017-04-03T01:20:32.700Z,90.11
2017-04-03T01:21:27.036Z,90.11
2017-04-03T01:22:15.791Z,90.11
2017-04-03T01:23:04.843Z,90.08
2017-04-03T01:24:04.896Z,90.08
2017-04-03T01:24:58.892Z,90.05
2017-04-03T01:25:47.954Z,90.05
2017-04-03T01:26:37.207Z,90.03
2017-04-03T01:27:32.032Z,90.05
2017-04-03T01:28:27.261Z,90.05
2017-04-03T01:29:27.221Z,90.05
2017-04-03T01:30:22.131Z,90.05
2017-04-03T01:31:17.174Z,90.05
2017-04-03T01:32:12.212Z,90.03
2017-04-03T01:33:01.318Z,90.03
2017-04-03T01:33:49.748Z,90.03
2017-04-03T01:34:44.306Z,90.00
2017-04-03T01:35:38.346Z,89.96
2017-04-03T01:36:27.387Z,89.95
2017-04-03T01:37:21.415Z,89.93
2017-04-03T01:38:10.421Z,89.95
2017-04-03T01:38:59.469Z,89.96
2017-04-03T01:39:53.492Z,89.93
2017-04-03T01:40:59.528Z,89.90
2017-04-03T01:41:54.632Z,89.95
2017-04-03T01:42:50.017Z,89.97
2017-04-03T01:43:49.629Z,89.99
2017-04-03T01:44:43.683Z,90.00
2017-04-03T01:45:31.692Z,90.00
2017-04-03T01:46:19.761Z,90.00
2017-04-03T01:47:07.792Z,89.99
2017-04-03T01:47:55.854Z,89.99
2017-04-03T01:48:55.840Z,89.97
2017-04-03T01:49:44.918Z,90.01
2017-04-03T01:50:44.954Z,90.04
2017-04-03T01:51:38.954Z,90.06
2017-04-03T01:52:38.993Z,90.06
2017-04-03T01:53:28.066Z,90.08
2017-04-03T01:54:17.444Z,90.08
2017-04-03T01:55:18.079Z,90.08
2017-04-03T01:56:06.122Z,90.08
2017-04-03T01:56:55.190Z,90.08
2017-04-03T01:57:50.571Z,90.08
2017-04-03T01:58:51.274Z,90.08
2017-04-03T01:59:50.694Z,90.08
2017-04-03T02:00:38.348Z,90.11
2017-04-03T02:01:44.357Z,90.09
2017-04-03T02:02:33.375Z,90.05
2017-04-03T02:03:22.476Z,90.03
2017-04-03T02:04:16.485Z,90.01
2017-04-03T02:05:10.511Z,90.03
2017-04-03T02:06:04.660Z,90.07
2017-04-03T02:06:58.593Z,90.13
2017-04-03T02:07:46.612Z,90.12
2017-04-03T02:08:40.683Z,90.20
2017-04-03T02:09:35.695Z,90.26
2017-04-03T02:10:36.718Z,90.25
2017-04-03T02:11:30.770Z,90.24
2017-04-03T02:12:25.780Z,90.23
2017-04-03T02:13:14.846Z,90.23
2017-04-03T02:14:08.884Z,90.27
2017-04-03T02:14:58.000Z,90.28
2017-04-03T02:15:45.886Z,90.30
2017-04-03T02:16:40.957Z,90.38
2017-04-03T02:17:34.981Z,90.42
2017-04-03T02:18:34.981Z,90.46
2017-04-03T02:19:29.053Z,90.50
2017-04-03T02:20:24.161Z,90.52
2017-04-03T02:21:12.177Z,90.53
2017-04-03T02:22:12.207Z,90.62
2017-04-03T02:23:06.301Z,90.66
2017-04-03T02:24:12.227Z,90.74
2017-04-03T02:25:00.354Z,90.80
2017-04-03T02:25:49.319Z,90.89
2017-04-03T02:26:44.346Z,90.98
2017-04-03T02:27:32.380Z,90.98
2017-04-03T02:28:32.455Z,91.05
2017-04-03T02:29:26.467Z,91.09
2017-04-03T02:30:26.499Z,91.12
2017-04-03T02:31:20.705Z,91.15
2017-04-03T02:32:14.579Z,91.23
2017-04-03T02:33:09.968Z,91.26
2017-04-03T02:34:04.635Z,91.34
2017-04-03T02:34:59.697Z,91.41
2017-04-03T02:35:53.900Z,91.49
2017-04-03T02:36:53.978Z,91.54
2017-04-03T02:37:48.790Z,91.57
2017-04-03T02:38:36.825Z,91.61
2017-04-03T02:39:30.887Z,91.69
2017-04-03T02:40:25.222Z,91.67
2017-04-03T02:41:25.012Z,91.75
2017-04-03T02:42:12.971Z,91.80
2017-04-03T02:43:08.002Z,91.89
2017-04-03T02:44:03.006Z,91.93
2017-04-03T02:44:58.114Z,91.97
2017-04-03T02:45:47.087Z,92.01
2017-04-03T02:46:42.107Z,92.09
2017-04-03T02:47:37.245Z,92.13
2017-04-03T02:48:31.173Z,92.17
2017-04-03T02:49:31.214Z,92.21
2017-04-03T02:50:25.281Z,92.30
2017-04-03T02:51:31.291Z,92.35
2017-04-03T02:52:31.312Z,92.37
2017-04-03T02:53:25.355Z,92.45
2017-04-03T02:54:20.405Z,92.49
2017-04-03T02:55:15.401Z,92.58
2017-04-03T02:56:09.595Z,92.60
2017-04-03T02:56:57.905Z,92.66
2017-04-03T02:57:57.888Z,92.69
2017-04-03T02:58:52.612Z,92.76
2017-04-03T02:59:47.592Z,92.81
2017-04-03T03:00:47.600Z,92.83
2017-04-03T03:01:42.711Z,92.85
2017-04-03T03:02:30.681Z,92.89
2017-04-03T03:03:24.664Z,92.94
2017-04-03T03:04:19.189Z,92.99
2017-04-03T03:05:12.793Z,93.02
2017-04-03T03:06:07.808Z,93.02
2017-04-03T03:06:57.297Z,93.06
2017-04-03T03:07:45.942Z,93.08
2017-04-03T03:08:40.965Z,93.12
2017-04-03T03:09:36.013Z,93.14
2017-04-03T03:10:30.974Z,93.18
2017-04-03T03:11:26.060Z,93.20
2017-04-03T03:12:20.060Z,93.22
2017-04-03T03:13:09.095Z,93.27
2017-04-03T03:14:09.165Z,93.27
2017-04-03T03:14:58.526Z,93.29
2017-04-03T03:15:53.190Z,93.28
2017-04-03T03:16:53.262Z,93.32
2017-04-03T03:17:48.269Z,93.34
2017-04-03T03:18:43.303Z,93.33
2017-04-03T03:19:37.355Z,93.37
2017-04-03T03:20:32.477Z,93.37
2017-04-03T03:21:21.395Z,93.39
2017-04-03T03:22:16.423Z,93.39
2017-04-03T03:23:05.518Z,93.41
2017-04-03T03:24:00.034Z,93.41
2017-04-03T03:24:53.614Z,93.46
2017-04-03T03:25:53.582Z,93.45
2017-04-03T03:26:48.586Z,93.45
2017-04-03T03:27:43.676Z,93.44
2017-04-03T03:28:44.649Z,93.46
2017-04-03T03:29:38.873Z,93.46
2017-04-03T03:30:33.760Z,93.45
2017-04-03T03:31:33.779Z,93.46
2017-04-03T03:32:27.794Z,93.48
2017-04-03T03:33:22.885Z,93.48
2017-04-03T03:34:16.860Z,93.48
2017-04-03T03:35:16.906Z,93.47
2017-04-03T03:36:10.996Z,93.51
2017-04-03T03:37:04.988Z,93.50
2017-04-03T03:38:00.035Z,93.50
2017-04-03T03:38:54.993Z,93.49
2017-04-03T03:39:50.082Z,93.53
2017-04-03T03:40:44.129Z,93.53
2017-04-03T03:41:33.161Z,93.55
2017-04-03T03:42:33.201Z,93.57
2017-04-03T03:43:27.199Z,93.57
2017-04-03T03:44:27.268Z,93.62
2017-04-03T03:45:21.305Z,93.62
2017-04-03T03:46:15.261Z,93.62
2017-04-03T03:47:10.367Z,93.62
2017-04-03T03:48:05.400Z,93.66
2017-04-03T03:48:54.387Z,93.66
2017-04-03T03:49:48.480Z,93.70
2017-04-03T03:50:48.500Z,93.68
2017-04-03T03:51:43.493Z,93.70
2017-04-03T03:52:43.579Z,93.75
2017-04-03T03:53:38.768Z,93.75
2017-04-03T03:54:33.624Z,93.78
2017-04-03T03:55:34.606Z,93.80
2017-04-03T03:56:22.711Z,93.80
2017-04-03T03:57:16.687Z,93.80
2017-04-03T03:58:10.738Z,93.85
2017-04-03T03:58:58.798Z,93.85
2017-04-03T03:59:58.834Z,93.85
2017-04-03T04:00:58.861Z,93.86
2017-04-03T04:01:47.910Z,93.88
2017-04-03T04:02:42.020Z,93.88
2017-04-03T04:03:36.966Z,93.89
2017-04-03T04:04:26.016Z,93.93
2017-04-03T04:05:20.014Z,93.91
2017-04-03T04:06:09.080Z,93.92
2017-04-03T04:06:58.074Z,93.93
2017-04-03T04:07:47.138Z,93.95
2017-04-03T04:08:41.198Z,93.95
2017-04-03T04:09:36.590Z,93.95
2017-04-03T04:10:25.233Z,93.97
2017-04-03T04:11:20.221Z,93.97
2017-04-03T04:12:15.293Z,93.99
2017-04-03T04:13:04.753Z,94.00
2017-04-03T04:13:58.362Z,94.03
2017-04-03T04:14:53.381Z,94.03
2017-04-03T04:15:42.481Z,94.03
2017-04-03T04:16:31.451Z,94.04
2017-04-03T04:17:25.487Z,94.08
2017-04-03T04:18:19.518Z,94.08
2017-04-03T04:19:14.584Z,94.09
2017-04-03T04:20:08.581Z,94.09
2017-04-03T04:20:57.642Z,94.12
2017-04-03T04:21:46.695Z,94.14
2017-04-03T04:22:34.714Z,94.11
2017-04-03T04:23:34.735Z,94.13
2017-04-03T04:24:28.799Z,94.13
2017-04-03T04:25:22.946Z,94.13
2017-04-03T04:26:10.898Z,94.17
2017-04-03T04:26:59.914Z,94.17
2017-04-03T04:27:48.933Z,94.18
2017-04-03T04:28:43.007Z,94.19
2017-04-03T04:29:37.018Z,94.21
2017-04-03T04:30:38.094Z,94.21
2017-04-03T04:31:39.095Z,94.24
2017-04-03T04:32:33.134Z,94.27
2017-04-03T04:33:27.195Z,94.29
2017-04-03T04:34:15.217Z,94.26
2017-04-03T04:35:15.211Z,94.30
2017-04-03T04:36:15.293Z,94.30
2017-04-03T04:37:16.274Z,94.31
2017-04-03T04:38:04.293Z,94.30
2017-04-03T04:39:04.328Z,94.34
2017-04-03T04:39:59.381Z,94.32
2017-04-03T04:40:54.353Z,94.35
2017-04-03T04:41:49.477Z,94.35
2017-04-03T04:42:43.460Z,94.34
2017-04-03T04:43:32.493Z,94.35
2017-04-03T04:44:27.491Z,94.34
2017-04-03T04:45:22.928Z,94.36
2017-04-03T04:46:23.008Z,94.34
2017-04-03T04:47:10.674Z,94.38
2017-04-03T04:48:04.684Z,94.38
2017-04-03T04:48:58.674Z,94.39
2017-04-03T04:49:58.669Z,94.39
2017-04-03T04:50:47.753Z,94.39
2017-04-03T04:51:47.823Z,94.40
2017-04-03T04:52:41.872Z,94.41
2017-04-03T04:53:41.884Z,94.40
2017-04-03T04:54:36.879Z,94.39
2017-04-03T04:55:31.904Z,94.41
2017-04-03T04:56:31.943Z,94.42
2017-04-03T04:57:31.997Z,94.43
2017-04-03T04:58:27.109Z,94.41
2017-04-03T04:59:28.065Z,94.40
2017-04-03T05:00:28.060Z,94.38
2017-04-03T05:01:28.065Z,94.33
2017-04-03T05:02:28.119Z,94.35
2017-04-03T05:03:28.202Z,94.34
2017-04-03T05:04:28.179Z,94.37
2017-04-03T05:05:28.359Z,94.33
2017-04-03T05:06:28.180Z,94.32
2017-04-03T05:07:28.681Z,94.32
2017-04-03T05:08:28.498Z,94.31
2017-04-03T05:09:28.776Z,94.30
2017-04-03T05:10:23.424Z,94.30
2017-04-03T05:11:17.379Z,94.30
2017-04-03T05:12:06.483Z,94.30
2017-04-03T05:13:07.467Z,94.29
2017-04-03T05:14:01.482Z,94.29
2017-04-03T05:14:56.745Z,94.30
2017-04-03T05:15:55.580Z,94.25
2017-04-03T05:16:49.560Z,94.28
2017-04-03T05:17:49.657Z,94.25
2017-04-03T05:18:43.657Z,94.22
2017-04-03T05:19:44.702Z,94.20
2017-04-03T05:20:39.787Z,94.17
2017-04-03T05:21:33.758Z,94.18
2017-04-03T05:22:39.810Z,94.16
2017-04-03T05:23:28.868Z,94.15
2017-04-03T05:24:22.865Z,94.15
2017-04-03T05:25:22.908Z,94.11
2017-04-03T05:26:17.989Z,94.06
2017-04-03T05:27:12.956Z,94.07
2017-04-03T05:28:06.983Z,94.03
2017-04-03T05:29:02.592Z,94.04
2017-04-03T05:29:56.079Z,94.03
2017-04-03T05:30:51.129Z,94.01
2017-04-03T05:31:40.261Z,94.01
2017-04-03T05:32:35.570Z,94.01
2017-04-03T05:33:36.318Z,93.97
2017-04-03T05:34:36.569Z,93.98
2017-04-03T05:35:31.300Z,93.99
2017-04-03T05:36:26.361Z,93.95
2017-04-03T05:37:27.366Z,93.96
2017-04-03T05:38:22.397Z,93.96
2017-04-03T05:39:17.409Z,93.96
2017-04-03T05:40:12.488Z,93.92
2017-04-03T05:41:12.493Z,93.93
2017-04-03T05:42:06.869Z,93.90
2017-04-03T05:43:00.538Z,93.86
2017-04-03T05:44:00.562Z,93.82
2017-04-03T05:44:54.565Z,93.82
2017-04-03T05:45:54.653Z,93.78
2017-04-03T05:46:48.727Z,93.75
2017-04-03T05:47:48.707Z,93.73
2017-04-03T05:48:43.736Z,93.69
2017-04-03T05:49:38.925Z,93.65
2017-04-03T05:50:38.955Z,93.59
2017-04-03T05:51:33.845Z,93.57
2017-04-03T05:52:28.880Z,93.53
2017-04-03T05:53:22.901Z,93.49
2017-04-03T05:54:22.963Z,93.49
2017-04-03T05:55:16.946Z,93.46
2017-04-03T05:56:17.963Z,93.43
2017-04-03T05:57:18.014Z,93.34
2017-04-03T05:58:18.086Z,93.29
2017-04-03T05:59:18.088Z,93.30
2017-04-03T06:00:13.079Z,93.25
2017-04-03T06:01:07.171Z,93.20
2017-04-03T06:02:02.154Z,93.18
2017-04-03T06:02:56.263Z,93.14
2017-04-03T06:03:56.255Z,93.06
2017-04-03T06:04:51.289Z,92.95
2017-04-03T06:05:45.631Z,92.84
2017-04-03T06:06:39.768Z,92.77
2017-04-03T06:07:34.415Z,92.68
2017-04-03T06:08:29.384Z,92.61
2017-04-03T06:09:29.481Z,92.44
2017-04-03T06:10:24.497Z,92.35
2017-04-03T06:11:19.546Z,92.26
2017-04-03T06:12:13.521Z,92.17
2017-04-03T06:13:13.947Z,92.13
2017-04-03T06:14:07.614Z,92.10
2017-04-03T06:15:07.638Z,92.00
2017-04-03T06:16:02.670Z,91.99
2017-04-03T06:17:02.689Z,91.98
2017-04-03T06:17:51.760Z,91.96
2017-04-03T06:18:45.751Z,91.96
2017-04-03T06:19:45.997Z,91.89
2017-04-03T06:20:39.871Z,91.88
2017-04-03T06:21:40.890Z,91.84
2017-04-03T06:22:42.537Z,91.81
2017-04-03T06:23:30.971Z,91.81
2017-04-03T06:24:25.987Z,91.77
2017-04-03T06:25:20.265Z,91.75
2017-04-03T06:26:14.480Z,91.68
2017-04-03T06:27:03.153Z,91.69
2017-04-03T06:27:57.154Z,91.67
2017-04-03T06:28:58.165Z,91.60
2017-04-03T06:29:59.174Z,91.64
2017-04-03T06:30:59.208Z,91.67
2017-04-03T06:31:53.272Z,91.68
2017-04-03T06:32:42.288Z,91.65
2017-04-03T06:33:31.614Z,91.61
2017-04-03T06:34:19.307Z,91.61
2017-04-03T06:35:07.383Z,91.60
2017-04-03T06:36:01.468Z,91.59
2017-04-03T06:36:56.495Z,91.50
2017-04-03T06:37:56.516Z,91.46
2017-04-03T06:38:52.181Z,91.38
2017-04-03T06:39:45.712Z,91.33
2017-04-03T06:40:45.640Z,91.21
2017-04-03T06:41:40.748Z,91.21
2017-04-03T06:42:35.715Z,91.19
2017-04-03T06:43:29.708Z,91.18
2017-04-03T06:44:24.993Z,91.19
2017-04-03T06:45:14.132Z,91.18
2017-04-03T06:46:07.801Z,91.19
2017-04-03T06:47:02.900Z,91.20
2017-04-03T06:48:02.897Z,91.20
2017-04-03T06:48:56.971Z,91.13
2017-04-03T06:49:57.249Z,91.07
2017-04-03T06:50:51.286Z,91.03
2017-04-03T06:51:45.044Z,90.98
2017-04-03T06:52:40.083Z,90.94
2017-04-03T06:53:40.127Z,90.89
2017-04-03T06:54:34.108Z,90.89
2017-04-03T06:55:28.249Z,90.90
2017-04-03T06:56:28.197Z,90.95
2017-04-03T06:57:22.634Z,91.02
2017-04-03T06:58:17.255Z,90.99
2017-04-03T06:59:23.260Z,91.04
2017-04-03T07:00:18.323Z,91.07
2017-04-03T07:01:18.349Z,91.08
2017-04-03T07:02:13.384Z,91.07
2017-04-03T07:03:08.406Z,91.08
2017-04-03T07:03:57.465Z,91.08
2017-04-03T07:04:57.531Z,91.08
2017-04-03T07:05:57.507Z,91.08
2017-04-03T07:06:57.578Z,91.09
2017-04-03T07:07:51.976Z,91.01
2017-04-03T07:08:51.643Z,91.09
2017-04-03T07:09:46.663Z,91.11
2017-04-03T07:10:40.695Z,91.11
2017-04-03T07:11:35.718Z,91.05
2017-04-03T07:12:35.832Z,90.98
2017-04-03T07:13:30.811Z,90.94
2017-04-03T07:14:25.284Z,90.94
2017-04-03T07:15:25.210Z,90.91
2017-04-03T07:16:18.881Z,90.94
2017-04-03T07:17:18.906Z,90.93
2017-04-03T07:18:12.971Z,90.99
2017-04-03T07:19:14.004Z,91.00
2017-04-03T07:20:15.014Z,90.97
2017-04-03T07:21:15.096Z,90.94
2017-04-03T07:22:04.062Z,90.94
2017-04-03T07:22:58.094Z,90.94
2017-04-03T07:23:47.469Z,90.95
2017-04-03T07:24:42.189Z,90.96
2017-04-03T07:25:42.248Z,90.88
2017-04-03T07:26:37.299Z,90.82
2017-04-03T07:27:32.296Z,90.81
2017-04-03T07:28:26.704Z,90.77
2017-04-03T07:29:26.960Z,90.78
2017-04-03T07:30:21.380Z,90.79
2017-04-03T07:31:16.433Z,90.75
2017-04-03T07:32:16.483Z,90.70
2017-04-03T07:33:10.515Z,90.74
2017-04-03T07:34:05.509Z,90.74
2017-04-03T07:34:59.831Z,90.74
2017-04-03T07:35:54.632Z,90.70
2017-04-03T07:36:49.661Z,90.68
2017-04-03T07:37:38.693Z,90.66
2017-04-03T07:38:38.672Z,90.67
2017-04-03T07:39:38.776Z,90.62
2017-04-03T07:40:39.591Z,90.52
2017-04-03T07:41:32.765Z,90.48
2017-04-03T07:42:21.890Z,90.40
2017-04-03T07:43:21.897Z,90.30
2017-04-03T07:44:15.997Z,90.21
2017-04-03T07:45:04.001Z,90.25
2017-04-03T07:45:53.198Z,90.22
2017-04-03T07:46:48.027Z,90.09
2017-04-03T07:47:42.137Z,89.96
2017-04-03T07:48:31.532Z,90.03
2017-04-03T07:49:26.240Z,89.98
2017-04-03T07:50:20.229Z,89.91
2017-04-03T07:51:15.247Z,89.75
2017-04-03T07:52:03.503Z,89.68
2017-04-03T07:53:03.694Z,89.33
2017-04-03T07:53:58.664Z,88.88
2017-04-03T07:54:52.484Z,88.66
2017-04-03T07:55:53.382Z,88.50
2017-04-03T07:56:48.487Z,88.37
2017-04-03T07:57:42.514Z,88.23
2017-04-03T07:58:36.908Z,88.17
2017-04-03T07:59:31.594Z,88.14
2017-04-03T08:00:20.598Z,88.20
2017-04-03T08:01:09.645Z,88.22
2017-04-03T08:02:04.327Z,88.16
2017-04-03T08:03:03.723Z,88.03
2017-04-03T08:03:58.802Z,87.85
2017-04-03T08:04:52.772Z,87.85
2017-04-03T08:05:47.841Z,87.84
2017-04-03T08:06:48.861Z,87.96
2017-04-03T08:07:49.176Z,87.83
2017-04-03T08:08:48.900Z,87.60
2017-04-03T08:09:42.961Z,87.58
2017-04-03T08:10:43.002Z,87.66
2017-04-03T08:11:37.963Z,87.54
2017-04-03T08:12:27.130Z,87.49
2017-04-03T08:13:21.712Z,87.46
2017-04-03T08:14:22.192Z,87.29
2017-04-03T08:15:17.168Z,87.28
2017-04-03T08:16:12.205Z,87.36
2017-04-03T08:17:07.772Z,87.45
2017-04-03T08:18:01.304Z,87.64
2017-04-03T08:19:01.782Z,87.66
2017-04-03T08:19:56.366Z,87.80
2017-04-03T08:20:51.372Z,87.86
2017-04-03T08:21:51.392Z,87.86
2017-04-03T08:22:46.381Z,87.81
2017-04-03T08:23:41.411Z,87.70
2017-04-03T08:24:30.797Z,87.60
2017-04-03T08:25:31.565Z,87.53
2017-04-03T08:26:31.598Z,87.58
2017-04-03T08:27:25.608Z,87.55
2017-04-03T08:28:25.718Z,87.48
2017-04-03T08:29:20.718Z,87.44
2017-04-03T08:30:15.754Z,87.38
2017-04-03T08:31:10.129Z,87.30
2017-04-03T08:32:10.183Z,87.14
2017-04-03T08:33:03.849Z,87.00
2017-04-03T08:34:04.902Z,86.95
2017-04-03T08:34:58.891Z,86.90
2017-04-03T08:35:53.016Z,86.50
2017-04-03T08:36:53.003Z,85.97
2017-04-03T08:37:47.007Z,85.88
2017-04-03T08:38:48.064Z,85.80
2017-04-03T08:39:48.074Z,85.04
2017-04-03T08:40:37.122Z,84.56
2017-04-03T08:41:37.158Z,84.40
2017-04-03T08:42:25.167Z,84.44
2017-04-03T08:43:14.202Z,84.44
2017-04-03T08:44:09.299Z,84.38
2017-04-03T08:45:03.293Z,84.35
2017-04-03T08:45:58.394Z,84.32
2017-04-03T08:46:58.687Z,84.30
2017-04-03T08:47:58.444Z,84.33
2017-04-03T08:48:58.454Z,84.39
2017-04-03T08:49:58.477Z,84.33
2017-04-03T08:50:53.533Z,84.09
2017-04-03T08:51:48.589Z,84.00
2017-04-03T08:52:44.507Z,83.93
2017-04-03T08:53:43.578Z,83.93
2017-04-03T08:54:38.700Z,84.01
2017-04-03T08:55:32.714Z,83.98
2017-04-03T08:56:32.763Z,83.94
2017-04-03T08:57:22.035Z,83.93
2017-04-03T08:58:15.841Z,84.03
2017-04-03T08:59:21.872Z,83.68
2017-04-03T09:00:16.866Z,83.51
2017-04-03T09:01:10.944Z,83.30
2017-04-03T09:02:04.971Z,83.10
2017-04-03T09:03:00.005Z,82.70
2017-04-03T09:03:54.084Z,82.16
2017-04-03T09:04:49.063Z,81.56
2017-04-03T09:05:44.122Z,80.81
2017-04-03T09:06:33.200Z,80.71
2017-04-03T09:07:22.279Z,80.82
2017-04-03T09:08:17.830Z,80.77
2017-04-03T09:09:17.748Z,80.74
2017-04-03T09:10:12.388Z,80.00
2017-04-03T09:11:07.389Z,79.77
2017-04-03T09:12:01.392Z,79.81
2017-04-03T09:13:01.494Z,79.87
2017-04-03T09:13:56.498Z,79.82
2017-04-03T09:14:50.630Z,79.79
2017-04-03T09:15:45.592Z,79.71
2017-04-03T09:16:39.591Z,79.60
2017-04-03T09:17:34.588Z,80.07
2017-04-03T09:18:34.701Z,79.42
2017-04-03T09:19:29.712Z,79.28
2017-04-03T09:20:25.004Z,79.24
2017-04-03T09:21:19.205Z,78.79
2017-04-03T09:22:19.250Z,78.83
2017-04-03T09:23:13.886Z,77.89
2017-04-03T09:24:08.904Z,77.84
2017-04-03T09:25:08.963Z,77.56
2017-04-03T09:26:04.003Z,77.49
2017-04-03T09:26:59.017Z,77.31
2017-04-03T09:27:48.116Z,77.19
2017-04-03T09:28:48.126Z,77.25
2017-04-03T09:29:42.213Z,77.21
2017-04-03T09:30:42.496Z,76.37
2017-04-03T09:31:37.280Z,76.07
2017-04-03T09:32:32.303Z,76.29
2017-04-03T09:33:26.294Z,76.55
2017-04-03T09:34:21.787Z,76.18
2017-04-03T09:35:22.815Z,76.57
2017-04-03T09:36:22.973Z,76.09
2017-04-03T09:37:17.469Z,75.68
2017-04-03T09:38:17.562Z,75.64
2017-04-03T09:39:12.603Z,75.22
2017-04-03T09:40:07.611Z,75.06
2017-04-03T09:40:56.698Z,74.83
2017-04-03T09:41:50.707Z,74.65
2017-04-03T09:42:50.776Z,75.11
2017-04-03T09:43:44.772Z,75.73
2017-04-03T09:44:45.864Z,76.01
2017-04-03T09:45:40.920Z,76.05
2017-04-03T09:46:41.265Z,75.80
2017-04-03T09:47:40.995Z,75.86
2017-04-03T09:48:40.951Z,75.95
2017-04-03T09:49:41.070Z,75.69
2017-04-03T09:50:41.078Z,75.67
2017-04-03T09:51:30.478Z,76.52
2017-04-03T09:52:24.488Z,76.27
2017-04-03T09:53:12.218Z,73.84
2017-04-03T09:54:01.226Z,72.63
2017-04-03T09:54:55.446Z,72.67
2017-04-03T09:55:43.392Z,73.29
2017-04-03T09:56:37.422Z,71.63
2017-04-03T09:57:32.743Z,71.52
2017-04-03T09:58:33.522Z,71.33
2017-04-03T09:59:28.963Z,71.07
2017-04-03T10:00:22.592Z,71.01
2017-04-03T10:01:22.783Z,70.59
2017-04-03T10:02:17.691Z,70.78
2017-04-03T10:03:07.100Z,71.35
2017-04-03T10:04:01.735Z,71.85
2017-04-03T10:04:55.816Z,72.43
2017-04-03T10:05:56.893Z,72.57
2017-04-03T10:06:45.915Z,73.41
2017-04-03T10:07:40.966Z,72.78
2017-04-03T10:08:34.950Z,72.50
2017-04-03T10:09:30.510Z,72.25
2017-04-03T10:10:25.093Z,71.69
2017-04-03T10:11:25.090Z,72.18
2017-04-03T10:12:19.180Z,71.38
2017-04-03T10:13:14.220Z,72.15
2017-04-03T10:14:08.259Z,70.92
2017-04-03T10:15:02.634Z,71.66
2017-04-03T10:15:57.338Z,71.70
2017-04-03T10:16:52.429Z,71.30
2017-04-03T10:17:46.456Z,70.78
2017-04-03T10:18:46.453Z,70.18
2017-04-03T10:19:41.547Z,69.74
2017-04-03T10:20:36.513Z,69.89
2017-04-03T10:21:31.968Z,70.17
2017-04-03T10:22:32.010Z,68.25
2017-04-03T10:23:25.674Z,68.27
2017-04-03T10:24:19.732Z,66.90
2017-04-03T10:25:14.799Z,66.62
2017-04-03T10:26:09.810Z,67.20
2017-04-03T10:27:04.231Z,65.80
2017-04-03T10:27:57.870Z,66.98
2017-04-03T10:28:52.968Z,67.42
2017-04-03T10:29:41.985Z,68.45
2017-04-03T10:30:36.162Z,67.64
2017-04-03T10:31:30.092Z,66.57
2017-04-03T10:32:24.189Z,68.16
2017-04-03T10:33:24.192Z,67.15
2017-04-03T10:34:12.314Z,66.88
2017-04-03T10:35:13.294Z,67.03
2017-04-03T10:36:08.292Z,64.68
2017-04-03T10:37:02.400Z,64.34
2017-04-03T10:37:56.426Z,65.97
2017-04-03T10:38:56.750Z,63.69
2017-04-03T10:39:56.506Z,64.44
2017-04-03T10:40:50.598Z,64.95
2017-04-03T10:41:45.612Z,65.07
2017-04-03T10:42:45.683Z,65.12
2017-04-03T10:43:40.665Z,65.08
2017-04-03T10:44:35.069Z,66.13
2017-04-03T10:45:29.836Z,65.09
2017-04-03T10:46:29.847Z,65.62
2017-04-03T10:47:24.896Z,63.04
2017-04-03T10:48:24.937Z,62.93
2017-04-03T10:49:25.045Z,64.57
2017-04-03T10:50:19.072Z,66.82
2017-04-03T10:51:14.079Z,68.51
2017-04-03T10:52:09.506Z,67.76
2017-04-03T10:52:58.204Z,67.72
2017-04-03T10:53:53.203Z,68.11
2017-04-03T10:54:48.262Z,69.39
2017-04-03T10:55:49.289Z,69.87
2017-04-03T10:56:50.371Z,69.23
2017-04-03T10:57:39.825Z,69.34
2017-04-03T10:58:33.508Z,68.22
2017-04-03T10:59:33.504Z,67.76
2017-04-03T11:00:27.595Z,67.29
2017-04-03T11:01:27.621Z,67.98
2017-04-03T11:02:21.676Z,68.17
2017-04-03T11:03:21.706Z,68.23
2017-04-03T11:04:21.781Z,68.71
2017-04-03T11:05:21.807Z,69.01
2017-04-03T11:06:21.803Z,67.98
2017-04-03T11:07:09.889Z,67.00
2017-04-03T11:08:03.920Z,66.01
2017-04-03T11:08:57.983Z,63.37
2017-04-03T11:09:58.989Z,58.66
2017-04-03T11:11:00.080Z,57.79
2017-04-03T11:11:49.155Z,57.85
2017-04-03T11:12:44.518Z,59.30
2017-04-03T11:13:45.213Z,60.19
2017-04-03T11:14:39.265Z,61.65
2017-04-03T11:15:39.278Z,62.64
2017-04-03T11:16:34.380Z,63.25
2017-04-03T11:17:28.390Z,64.34
2017-04-03T11:18:18.009Z,64.88
2017-04-03T11:19:12.512Z,65.91
2017-04-03T11:20:01.522Z,63.95
2017-04-03T11:20:50.562Z,62.66
2017-04-03T11:21:45.732Z,60.36
2017-04-03T11:22:45.674Z,59.59
2017-04-03T11:23:40.698Z,60.57
2017-04-03T11:24:34.788Z,59.81
2017-04-03T11:25:34.818Z,56.32
2017-04-03T11:26:28.903Z,56.47
2017-04-03T11:27:22.846Z,58.15
2017-04-03T11:28:18.385Z,58.76
2017-04-03T11:29:17.984Z,58.89
2017-04-03T11:30:12.091Z,60.42
2017-04-03T11:31:07.152Z,59.98
2017-04-03T11:32:01.196Z,56.45
2017-04-03T11:32:56.182Z,54.98
2017-04-03T11:33:50.814Z,53.28
2017-04-03T11:34:44.302Z,52.41
2017-04-03T11:35:39.441Z,53.45
2017-04-03T11:36:40.425Z,53.67
2017-04-03T11:37:35.463Z,55.31
2017-04-03T11:38:35.483Z,55.63
2017-04-03T11:39:35.570Z,56.44
2017-04-03T11:40:35.590Z,56.85
2017-04-03T11:41:35.681Z,56.65
2017-04-03T11:42:29.702Z,55.71
2017-04-03T11:43:29.780Z,55.54
2017-04-03T11:44:25.104Z,56.15
2017-04-03T11:45:19.907Z,57.89
2017-04-03T11:46:13.923Z,57.54
2017-04-03T11:47:13.958Z,58.00
2017-04-03T11:48:09.008Z,58.60
2017-04-03T11:49:04.097Z,58.50